Time;durP1;ratioP1;P1;durP2;ratioP2;P2;SDS_P1;SDS_P2;PMS_P1;PMS_P2;Temp;Humidity;BMP_temperature;BMP_pressure;BME280_temperature;BME280_humidity;BME280_pressure;Samples;Min_cycle;Max_cycle;Signal;HPM_P1;HPM_P2
2024/03/15 00:02:04;;;;;;;;;;;;;;;21.52;37.12;101092.07;102496;1301;61444;-77
2024/03/15 00:04:30;;;;;;;;;;;;;;;21.52;37.13;101089.23;102452;1297;61510;-78
2024/03/15 00:06:56;;;;;;;;;;;;;;;21.52;37.14;101090.64;102382;1300;61363;-78
2024/03/15 00:09:22;;;;;;;;;;;;;;;21.51;37.21;101088.00;102458;1298;62233;-79
2024/03/15 00:11:47;;;;;;;;;;;;;;;21.52;37.11;101087.09;102394;1297;61864;-78
2024/03/15 00:14:13;;;;;;;;;;;;;;;21.52;37.20;101086.86;102324;1302;61413;-79
2024/03/15 00:16:39;;;;;;;;;;;;;;;21.52;37.09;101087.03;102444;1300;61737;-79
2024/03/15 00:19:06;;;;;;;;;;;;;;;21.52;37.10;101085.65;102452;1300;61292;-78
2024/03/15 00:21:31;;;;;;;;;;;;;;;21.51;37.10;101081.57;102345;1303;61374;-80
2024/03/15 00:23:57;;;;;;;;;;;;;;;21.52;37.19;101078.66;102360;1297;61333;-78
2024/03/15 00:26:22;;;;;;;;;;;;;;;21.52;37.24;101081.32;102476;1300;61432;-78
2024/03/15 00:28:48;;;;;;;;;;;;;;;21.52;37.11;101078.45;102436;1297;61332;-78
2024/03/15 00:31:14;;;;;;;;;;;;;;;21.52;37.09;101073.06;102398;1299;61487;-79
2024/03/15 00:33:40;;;;;;;;;;;;;;;21.51;37.18;101076.88;102277;1298;73520;-81
2024/03/15 00:36:06;;;;;;;;;;;;;;;21.52;37.14;101074.85;102397;1298;74295;-79
2024/03/15 00:38:32;;;;;;;;;;;;;;;21.52;37.13;101074.52;102415;1297;61478;-79
2024/03/15 00:40:57;;;;;;;;;;;;;;;21.52;37.13;101074.86;102373;1297;61404;-78
2024/03/15 00:43:23;;;;;;;;;;;;;;;21.52;37.11;101070.75;102321;1303;61403;-79
2024/03/15 00:45:48;;;;;;;;;;;;;;;21.52;37.06;101068.60;102393;1297;62756;-79
2024/03/15 00:48:15;;;;;;;;;;;;;;;21.52;37.09;101069.51;102404;1300;74546;-79
2024/03/15 00:50:43;;;;;;;;;;;;;;;21.52;37.00;101067.36;102487;1297;61421;-78
2024/03/15 00:53:10;;;;;;;;;;;;;;;21.52;37.11;101061.31;102412;1297;61388;-79
2024/03/15 00:55:35;;;;;;;;;;;;;;;21.52;37.11;101062.69;102433;1298;61421;-78
2024/03/15 00:58:01;;;;;;;;;;;;;;;21.53;37.13;101060.70;102390;1297;61568;-78
2024/03/15 01:00:26;;;;;;;;;;;;;;;21.53;37.18;101058.17;102338;1298;61558;-78
2024/03/15 01:02:52;;;;;;;;;;;;;;;21.52;37.04;101058.54;102401;1298;61419;-79
2024/03/15 01:05:18;;;;;;;;;;;;;;;21.53;37.09;101058.34;102433;1300;61421;-79
2024/03/15 01:07:44;;;;;;;;;;;;;;;21.53;37.15;101059.05;102329;1298;72617;-78
2024/03/15 01:10:09;;;;;;;;;;;;;;;21.53;37.14;101060.48;102480;1296;62638;-78
2024/03/15 01:12:35;;;;;;;;;;;;;;;21.53;37.20;101063.35;102304;1297;61361;-79
2024/03/15 01:15:01;;;;;;;;;;;;;;;21.53;37.23;101062.28;102329;1298;61566;-80
2024/03/15 01:17:28;;;;;;;;;;;;;;;21.54;37.09;101058.83;102415;1302;61390;-78
2024/03/15 01:19:53;;;;;;;;;;;;;;;21.53;37.12;101065.13;102633;1301;62471;-79
2024/03/15 01:22:21;;;;;;;;;;;;;;;21.54;37.12;101064.40;102391;1297;61702;-79
2024/03/15 01:24:46;;;;;;;;;;;;;;;21.54;37.26;101060.27;102360;1303;62083;-80
2024/03/15 01:27:12;;;;;;;;;;;;;;;21.54;37.27;101063.33;102575;1300;61413;-79
2024/03/15 01:29:37;;;;;;;;;;;;;;;21.55;37.07;101066.13;102318;1297;61493;-78
2024/03/15 01:32:04;;;;;;;;;;;;;;;21.54;37.14;101064.36;102415;1299;61493;-78
2024/03/15 01:34:30;;;;;;;;;;;;;;;21.54;37.14;101066.33;102431;1298;61721;-78
2024/03/15 01:36:56;;;;;;;;;;;;;;;21.54;37.12;101063.64;102495;1297;61428;-78
2024/03/15 01:39:24;;;;;;;;;;;;;;;21.55;37.19;101065.40;102502;1299;61307;-78
2024/03/15 01:41:50;;;;;;;;;;;;;;;21.55;37.17;101068.80;102506;1303;61552;-79
2024/03/15 01:44:16;;;;;;;;;;;;;;;21.56;37.10;101068.21;102337;1297;61439;-79
2024/03/15 01:46:42;;;;;;;;;;;;;;;21.55;37.10;101069.86;102350;1303;61473;-81
2024/03/15 01:49:08;;;;;;;;;;;;;;;21.56;37.19;101068.73;102329;1298;61347;-79
2024/03/15 01:51:34;;;;;;;;;;;;;;;21.56;37.16;101070.71;102362;1297;62126;-79
2024/03/15 01:54:00;;;;;;;;;;;;;;;21.56;37.21;101069.27;102300;1298;62105;-79
2024/03/15 01:56:26;;;;;;;;;;;;;;;21.56;37.13;101070.65;102510;1297;62445;-78
2024/03/15 01:58:52;;;;;;;;;;;;;;;21.56;37.10;101069.41;102407;1303;61377;-79
2024/03/15 02:01:17;;;;;;;;;;;;;;;21.56;37.24;101067.64;102360;1302;73520;-79
2024/03/15 02:03:46;;;;;;;;;;;;;;;21.56;37.14;101066.75;102355;1303;62126;-78
2024/03/15 02:06:13;;;;;;;;;;;;;;;21.56;37.26;101069.44;102448;1297;61425;-79
2024/03/15 02:08:39;;;;;;;;;;;;;;;21.56;37.08;101066.39;102372;1298;61392;-79
2024/03/15 02:11:04;;;;;;;;;;;;;;;21.56;37.09;101064.58;101785;1301;738990;-79
2024/03/15 02:13:30;;;;;;;;;;;;;;;21.57;37.10;101062.38;102383;1303;61403;-78
2024/03/15 02:15:55;;;;;;;;;;;;;;;21.57;37.11;101057.02;102365;1297;62378;-79
2024/03/15 02:18:21;;;;;;;;;;;;;;;21.57;37.05;101058.77;102432;1297;61319;-78
2024/03/15 02:20:47;;;;;;;;;;;;;;;21.57;37.10;101064.53;102402;1298;61493;-81
2024/03/15 02:23:12;;;;;;;;;;;;;;;21.57;37.10;101061.50;102452;1298;61403;-79
2024/03/15 02:25:38;;;;;;;;;;;;;;;21.57;37.12;101066.84;102372;1303;61431;-78
2024/03/15 02:28:07;;;;;;;;;;;;;;;21.57;37.20;101063.95;102364;1297;61501;-79
2024/03/15 02:30:33;;;;;;;;;;;;;;;21.57;37.09;101061.30;102317;1303;61332;-79
2024/03/15 02:32:58;;;;;;;;;;;;;;;21.57;37.19;101055.19;102272;1297;61423;-79
2024/03/15 02:35:24;;;;;;;;;;;;;;;21.57;37.31;101057.34;102443;1297;61305;-79
2024/03/15 02:37:53;;;;;;;;;;;;;;;21.58;37.10;101058.55;102298;1299;62170;-78
2024/03/15 02:40:19;;;;;;;;;;;;;;;21.57;37.19;101059.66;102368;1298;61405;-78
2024/03/15 02:42:46;;;;;;;;;;;;;;;21.58;37.19;101062.49;102439;1297;61427;-78
2024/03/15 02:45:11;;;;;;;;;;;;;;;21.58;37.23;101058.22;102341;1303;61384;-79
2024/03/15 02:47:38;;;;;;;;;;;;;;;21.57;37.19;101055.36;102460;1298;61434;-79
2024/03/15 02:50:06;;;;;;;;;;;;;;;21.58;37.19;101052.29;102424;1300;61376;-79
2024/03/15 02:52:32;;;;;;;;;;;;;;;21.58;37.11;101054.78;102465;1297;72406;-79
2024/03/15 02:54:58;;;;;;;;;;;;;;;21.58;37.13;101058.17;102353;1297;62060;-78
2024/03/15 02:57:23;;;;;;;;;;;;;;;21.58;37.16;101056.02;102349;1296;61423;-78
2024/03/15 02:59:49;;;;;;;;;;;;;;;21.59;37.19;101055.27;102464;1297;61288;-78
2024/03/15 03:02:16;;;;;;;;;;;;;;;21.59;37.16;101057.41;102490;1298;61491;-78
2024/03/15 03:04:42;;;;;;;;;;;;;;;21.59;37.14;101059.19;102374;1296;61497;-78
2024/03/15 03:07:08;;;;;;;;;;;;;;;21.59;37.08;101055.44;102499;1298;61494;-79
2024/03/15 03:09:33;;;;;;;;;;;;;;;21.58;37.06;101056.91;102342;1297;62006;-80
2024/03/15 03:11:59;;;;;;;;;;;;;;;21.59;37.07;101056.70;102284;1300;61452;-78
2024/03/15 03:14:26;;;;;;;;;;;;;;;21.59;37.13;101057.39;102298;1298;61427;-79
2024/03/15 03:16:51;;;;;;;;;;;;;;;21.59;37.17;101058.45;102422;1298;61821;-80
2024/03/15 03:19:17;;;;;;;;;;;;;;;21.59;37.21;101061.70;102407;1300;62588;-80
2024/03/15 03:21:46;;;;;;;;;;;;;;;21.59;37.20;101062.05;102423;1297;61369;-79
2024/03/15 03:24:12;;;;;;;;;;;;;;;21.60;37.03;101061.30;102348;1298;61291;-81
2024/03/15 03:26:37;;;;;;;;;;;;;;;21.59;37.14;101062.77;102369;1298;62781;-79
2024/03/15 03:29:03;;;;;;;;;;;;;;;21.59;37.14;101061.70;102394;1298;61305;-78
2024/03/15 03:31:28;;;;;;;;;;;;;;;21.59;37.26;101063.48;102418;1300;62620;-80
2024/03/15 03:33:54;;;;;;;;;;;;;;;21.59;37.18;101067.77;102272;1298;61344;-81
2024/03/15 03:36:19;;;;;;;;;;;;;;;21.60;37.20;101063.77;102338;1298;62250;-79
2024/03/15 03:38:45;;;;;;;;;;;;;;;21.60;37.08;101066.13;102339;1303;61374;-78
2024/03/15 03:41:11;;;;;;;;;;;;;;;21.59;37.16;101065.45;102440;1297;62993;-79
2024/03/15 03:43:37;;;;;;;;;;;;;;;21.60;37.20;101066.50;102478;1298;61479;-80
2024/03/15 03:46:06;;;;;;;;;;;;;;;21.60;37.14;101066.85;102488;1297;61404;-81
2024/03/15 03:48:32;;;;;;;;;;;;;;;21.59;37.16;101066.86;102308;1303;72483;-79
2024/03/15 03:51:01;;;;;;;;;;;;;;;21.60;37.11;101067.90;102376;1303;61335;-79
2024/03/15 03:53:44;;;;;;;;;;;;;;;21.59;37.17;101069.72;102398;1298;61423;-77
2024/03/15 03:56:10;;;;;;;;;;;;;;;21.60;37.09;101070.73;102337;1297;61286;-80
2024/03/15 03:58:36;;;;;;;;;;;;;;;21.60;37.20;101070.77;102337;1297;61447;-79
2024/03/15 04:01:03;;;;;;;;;;;;;;;21.61;37.15;101070.53;102360;1301;61318;-79
2024/03/15 04:03:29;;;;;;;;;;;;;;;21.61;37.07;101077.88;102336;1297;61421;-79
2024/03/15 04:05:55;;;;;;;;;;;;;;;21.60;37.19;101074.85;102502;1297;61447;-79
2024/03/15 04:08:21;;;;;;;;;;;;;;;21.61;37.09;101077.49;102336;1297;62121;-79
2024/03/15 04:10:46;;;;;;;;;;;;;;;21.60;37.07;101075.39;102336;1298;61705;-79
2024/03/15 04:13:12;;;;;;;;;;;;;;;21.61;37.03;101076.61;102517;1297;61541;-79
2024/03/15 04:15:38;;;;;;;;;;;;;;;21.61;37.08;101075.90;102421;1303;61358;-78
2024/03/15 04:18:03;;;;;;;;;;;;;;;21.61;37.19;101077.16;102289;1298;62263;-79
2024/03/15 04:20:29;;;;;;;;;;;;;;;21.62;37.15;101077.66;102502;1297;61325;-78
2024/03/15 04:22:55;;;;;;;;;;;;;;;21.61;37.13;101081.08;102370;1297;62375;-79
2024/03/15 04:25:23;;;;;;;;;;;;;;;21.61;37.21;101081.27;102408;1297;61314;-80
2024/03/15 04:27:49;;;;;;;;;;;;;;;21.62;37.21;101082.45;102425;1297;61385;-79
2024/03/15 04:30:14;;;;;;;;;;;;;;;21.62;37.09;101085.17;102342;1297;62166;-78
2024/03/15 04:32:41;;;;;;;;;;;;;;;21.62;37.13;101089.63;102327;1303;61511;-80
2024/03/15 04:35:07;;;;;;;;;;;;;;;21.62;37.22;101092.30;102310;1297;61393;-79
2024/03/15 04:37:34;;;;;;;;;;;;;;;21.62;37.18;101093.74;102277;1297;61389;-82
2024/03/15 04:40:00;;;;;;;;;;;;;;;21.63;37.18;101093.70;102352;1297;61420;-79
2024/03/15 04:42:32;;;;;;;;;;;;;;;21.63;37.15;101095.88;102343;1303;62449;-77
2024/03/15 04:45:02;;;;;;;;;;;;;;;21.62;37.02;101097.17;102483;1297;74429;-79
2024/03/15 04:47:28;;;;;;;;;;;;;;;21.62;36.94;101096.63;102394;1303;61309;-80
2024/03/15 04:49:53;;;;;;;;;;;;;;;21.62;36.87;101099.84;102460;1297;61503;-79
2024/03/15 04:52:21;;;;;;;;;;;;;;;21.62;36.91;101101.63;102366;1302;61441;-78
2024/03/15 04:54:47;;;;;;;;;;;;;;;21.62;36.72;101102.50;102467;1298;61860;-79
2024/03/15 04:57:15;;;;;;;;;;;;;;;21.62;36.71;101105.02;102598;1298;61374;-79
2024/03/15 04:59:40;;;;;;;;;;;;;;;21.63;36.69;101104.96;102472;1297;61370;-78
2024/03/15 05:02:06;;;;;;;;;;;;;;;21.63;36.77;101108.34;102430;1298;61397;-79
2024/03/15 05:04:32;;;;;;;;;;;;;;;21.64;36.65;101104.55;102300;1297;61409;-79
2024/03/15 05:06:57;;;;;;;;;;;;;;;21.64;36.47;101107.58;102565;1297;61418;-77
2024/03/15 05:09:23;;;;;;;;;;;;;;;21.64;36.45;101107.24;102720;1296;61555;-79
2024/03/15 05:11:49;;;;;;;;;;;;;;;21.64;36.37;101108.34;102532;1302;61287;-79
2024/03/15 05:14:15;;;;;;;;;;;;;;;21.64;36.42;101106.17;102205;1297;61691;-79
2024/03/15 05:16:40;;;;;;;;;;;;;;;21.64;36.41;101110.81;102454;1298;62090;-80
2024/03/15 05:19:09;;;;;;;;;;;;;;;21.64;36.36;101113.84;102713;1300;61410;-79
2024/03/15 05:21:34;;;;;;;;;;;;;;;21.64;36.42;101115.27;102560;1297;62609;-78
2024/03/15 05:24:01;;;;;;;;;;;;;;;21.64;36.40;101119.02;102468;1300;61377;-78
2024/03/15 05:26:26;;;;;;;;;;;;;;;21.64;36.26;101118.34;102638;1297;61437;-81
2024/03/15 05:28:52;;;;;;;;;;;;;;;21.64;36.29;101118.33;102467;1298;61430;-80
2024/03/15 05:31:22;;;;;;;;;;;;;;;21.63;36.33;101117.84;102466;1298;61580;-79
2024/03/15 05:33:48;;;;;;;;;;;;;;;21.63;36.36;101116.08;102475;1299;72450;-80
2024/03/15 05:36:13;;;;;;;;;;;;;;;21.63;36.31;101119.15;102581;1296;61549;-80
2024/03/15 05:38:39;;;;;;;;;;;;;;;21.61;36.43;101116.52;102496;1297;61427;-79
2024/03/15 05:41:05;;;;;;;;;;;;;;;21.61;36.27;101116.93;102700;1296;61329;-79
2024/03/15 05:43:31;;;;;;;;;;;;;;;21.58;36.17;101115.66;102633;1303;61461;-79
2024/03/15 05:45:56;;;;;;;;;;;;;;;21.55;36.26;101117.67;103303;1297;61309;-79
2024/03/15 05:48:22;;;;;;;;;;;;;;;21.51;36.18;101116.30;103075;1300;74665;-79
2024/03/15 05:50:48;;;;;;;;;;;;;;;21.49;36.15;101120.23;103471;1297;61431;-78
2024/03/15 05:53:13;;;;;;;;;;;;;;;21.44;36.05;101122.65;103026;1297;61300;-81
2024/03/15 05:55:39;;;;;;;;;;;;;;;21.41;36.00;101123.98;102957;1302;61409;-79
2024/03/15 05:58:04;;;;;;;;;;;;;;;21.37;36.02;101124.45;103553;1297;61356;-78
2024/03/15 06:00:33;;;;;;;;;;;;;;;21.32;36.00;101123.83;104029;1297;61426;-78
2024/03/15 06:03:05;;;;;;;;;;;;;;;21.28;36.02;101128.39;104425;1296;59721;-79
2024/03/15 06:05:31;;;;;;;;;;;;;;;21.24;36.01;101132.80;104281;1299;61394;-78
2024/03/15 06:07:56;;;;;;;;;;;;;;;21.20;36.04;101136.10;104564;1297;60356;-78
2024/03/15 06:10:25;;;;;;;;;;;;;;;21.17;36.01;101138.61;104394;1298;60225;-78
2024/03/15 06:12:54;;;;;;;;;;;;;;;21.15;35.88;101143.08;104424;1297;61394;-80
2024/03/15 06:15:20;;;;;;;;;;;;;;;21.13;35.98;101143.38;104309;1296;59877;-81
2024/03/15 06:17:46;;;;;;;;;;;;;;;21.12;35.93;101145.41;104134;1297;59141;-81
2024/03/15 06:20:12;;;;;;;;;;;;;;;21.10;35.91;101144.45;104390;1299;59828;-82
2024/03/15 06:22:38;;;;;;;;;;;;;;;21.09;35.81;101147.73;104031;1297;62761;-79
2024/03/15 06:25:05;;;;;;;;;;;;;;;21.08;35.68;101146.22;104263;1300;59694;-78
2024/03/15 06:27:32;;;;;;;;;;;;;;;21.07;35.77;101148.92;104094;1297;72734;-76
2024/03/15 06:29:57;;;;;;;;;;;;;;;21.07;35.76;101154.29;104269;1297;59486;-77
2024/03/15 06:32:26;;;;;;;;;;;;;;;21.09;35.64;101151.53;104357;1297;61252;-80
2024/03/15 06:34:53;;;;;;;;;;;;;;;21.10;35.65;101153.74;104226;1296;61262;-79
2024/03/15 06:37:22;;;;;;;;;;;;;;;21.11;35.66;101158.34;104049;1297;59320;-78
2024/03/15 06:40:17;;;;;;;;;;;;;;;;;;;;;
2024/03/15 06:43:09;;;;;;;;;;;;;;;21.10;35.59;101157.52;103994;1297;60374;-79
2024/03/15 06:45:26;;;;;;;;;;;;;;;21.10;35.54;101159.63;103995;1297;61288;-79
2024/03/15 06:48:03;;;;;;;;;;;;;;;21.10;35.38;101160.04;104095;1297;72729;-78
2024/03/15 06:50:48;;;;;;;;;;;;;;;21.10;35.44;101158.04;104204;1297;74955;-80
2024/03/15 06:53:17;;;;;;;;;;;;;;;21.11;35.40;101158.02;104307;1296;60979;-79
2024/03/15 06:55:43;;;;;;;;;;;;;;;21.11;35.37;101160.15;105138;1297;60060;-81
2024/03/15 06:58:10;;;;;;;;;;;;;;;21.11;35.41;101161.95;103960;1297;72823;-76
2024/03/15 07:00:36;;;;;;;;;;;;;;;21.13;35.56;101158.55;105454;1296;58532;-78
2024/03/15 07:03:01;;;;;;;;;;;;;;;21.16;35.93;101162.65;105167;1297;58876;-77
2024/03/15 07:05:28;;;;;;;;;;;;;;;21.19;35.99;101162.30;103166;1297;61370;-78
2024/03/15 07:07:53;;;;;;;;;;;;;;;21.23;36.08;101167.05;103391;1298;61353;-79
2024/03/15 07:10:19;;;;;;;;;;;;;;;21.26;36.16;101171.69;103175;1297;61404;-80
2024/03/15 07:12:46;;;;;;;;;;;;;;;21.28;36.14;101169.06;102965;1297;61430;-79
2024/03/15 07:15:15;;;;;;;;;;;;;;;21.31;36.23;101173.90;103174;1297;60249;-78
2024/03/15 07:17:43;;;;;;;;;;;;;;;21.33;36.32;101171.98;104091;1296;61379;-78
2024/03/15 07:20:08;;;;;;;;;;;;;;;21.34;36.42;101171.69;103524;1300;72448;-78
2024/03/15 07:22:34;;;;;;;;;;;;;;;21.36;36.21;101170.50;103515;1297;61407;-78
2024/03/15 07:25:04;;;;;;;;;;;;;;;21.37;36.27;101171.14;103328;1297;61159;-78
2024/03/15 07:27:30;;;;;;;;;;;;;;;21.38;36.34;101173.05;103474;1297;61180;-78
2024/03/15 07:29:56;;;;;;;;;;;;;;;21.39;36.30;101172.27;103788;1297;72495;-79
2024/03/15 07:32:23;;;;;;;;;;;;;;;21.40;36.33;101176.85;103456;1298;74504;-77
2024/03/15 07:34:48;;;;;;;;;;;;;;;21.40;36.28;101176.48;103245;1297;61313;-79
2024/03/15 07:37:15;;;;;;;;;;;;;;;21.40;36.27;101175.92;103565;1297;61308;-79
2024/03/15 07:39:41;;;;;;;;;;;;;;;21.40;36.38;101179.15;103599;1297;61452;-78
2024/03/15 07:42:06;;;;;;;;;;;;;;;21.41;36.39;101180.89;103278;1297;62527;-79
2024/03/15 07:44:32;;;;;;;;;;;;;;;21.42;36.49;101181.40;103628;1297;61368;-78
2024/03/15 07:46:58;;;;;;;;;;;;;;;21.42;36.47;101176.90;103600;1297;61418;-78
2024/03/15 07:49:23;;;;;;;;;;;;;;;21.41;36.48;101178.55;103273;1297;61410;-80
2024/03/15 07:51:50;;;;;;;;;;;;;;;21.41;36.62;101183.40;103679;1297;61398;-81
2024/03/15 07:54:21;;;;;;;;;;;;;;;21.41;36.53;101183.05;103479;1300;61304;-81
2024/03/15 07:56:47;;;;;;;;;;;;;;;21.40;36.58;101188.28;103496;1297;61325;-79
2024/03/15 07:59:21;;;;;;;;;;;;;;;21.39;36.70;101188.52;103736;1297;62744;-77
2024/03/15 08:01:47;;;;;;;;;;;;;;;21.40;36.81;101186.35;103603;1297;72587;-79
2024/03/15 08:04:14;;;;;;;;;;;;;;;21.39;36.96;101184.94;103571;1297;61265;-79
2024/03/15 08:06:39;;;;;;;;;;;;;;;21.40;37.19;101188.13;104114;1297;59205;-77
2024/03/15 08:09:06;;;;;;;;;;;;;;;21.40;37.09;101188.27;104203;1297;59108;-78
2024/03/15 08:11:34;;;;;;;;;;;;;;;21.41;37.18;101186.46;104128;1297;61260;-78
2024/03/15 08:14:02;;;;;;;;;;;;;;;21.42;37.19;101184.39;104253;1297;74714;-77
2024/03/15 08:16:33;;;;;;;;;;;;;;;21.45;37.31;101181.54;104489;1300;59969;-78
2024/03/15 08:19:07;;;;;;;;;;;;;;;21.47;37.33;101178.57;103990;1300;61313;-78
2024/03/15 08:21:33;;;;;;;;;;;;;;;21.48;37.33;101177.23;104321;1297;72440;-79
2024/03/15 08:24:04;;;;;;;;;;;;;;;21.49;37.19;101175.89;104048;1297;61318;-80
2024/03/15 08:26:32;;;;;;;;;;;;;;;21.50;37.39;101175.09;104032;1297;61461;-78
2024/03/15 08:28:58;;;;;;;;;;;;;;;21.52;37.38;101173.92;103959;1297;61301;-77
2024/03/15 08:31:24;;;;;;;;;;;;;;;21.53;37.25;101177.96;104319;1297;59344;-78
2024/03/15 08:33:50;;;;;;;;;;;;;;;21.54;37.20;101179.89;104505;1300;59280;-79
2024/03/15 08:36:15;;;;;;;;;;;;;;;21.55;37.33;101181.06;104320;1297;61255;-78
2024/03/15 08:38:46;;;;;;;;;;;;;;;21.56;37.43;101178.11;104085;1297;61191;-78
2024/03/15 08:41:12;;;;;;;;;;;;;;;21.57;37.33;101176.83;103775;1297;61406;-77
2024/03/15 08:43:38;;;;;;;;;;;;;;;21.58;37.30;101175.16;103586;1297;61192;-77
2024/03/15 08:46:05;;;;;;;;;;;;;;;21.58;37.43;101175.14;103706;1297;61237;-77
2024/03/15 08:48:31;;;;;;;;;;;;;;;21.59;37.23;101173.46;103390;1297;59433;-77
2024/03/15 08:50:57;;;;;;;;;;;;;;;21.59;37.15;101173.25;103475;1297;61279;-80
2024/03/15 08:53:24;;;;;;;;;;;;;;;21.58;37.18;101173.14;104180;1297;59279;-77
2024/03/15 08:55:50;;;;;;;;;;;;;;;21.54;37.10;101176.27;103714;1297;61278;-79
2024/03/15 08:58:17;;;;;;;;;;;;;;;21.30;36.89;101175.38;103936;1297;61175;-78
2024/03/15 09:00:43;;;;;;;;;;;;;;;21.07;37.06;101174.19;104016;1300;61292;-78
2024/03/15 09:03:09;;;;;;;;;;;;;;;21.04;37.19;101177.27;104365;1297;61320;-78
2024/03/15 09:05:38;;;;;;;;;;;;;;;21.05;37.13;101181.09;104417;1297;61343;-78
2024/03/15 09:08:06;;;;;;;;;;;;;;;21.08;37.44;101178.05;105375;1297;60150;-80
2024/03/15 09:10:32;;;;;;;;;;;;;;;21.13;37.42;101177.91;105527;1297;72305;-78
2024/03/15 09:12:58;;;;;;;;;;;;;;;21.16;37.29;101174.85;105378;1297;58877;-78
2024/03/15 09:15:24;;;;;;;;;;;;;;;21.19;37.35;101170.89;105592;1297;58808;-79
2024/03/15 09:17:50;;;;;;;;;;;;;;;21.22;37.37;101170.31;105279;1297;58605;-78
2024/03/15 09:22:44;;;;;;;;;;;;;;;21.29;37.22;101173.10;103943;1300;60317;-78
2024/03/15 09:25:18;;;;;;;;;;;;;;;21.29;37.29;101172.57;104099;1297;61279;-79
2024/03/15 09:27:48;;;;;;;;;;;;;;;21.29;37.23;101170.23;103779;1297;61163;-79
2024/03/15 09:30:17;;;;;;;;;;;;;;;21.30;37.29;101169.66;103774;1297;72493;-78
2024/03/15 09:32:48;;;;;;;;;;;;;;;21.32;37.12;101164.89;103841;1297;74817;-78
2024/03/15 09:35:14;;;;;;;;;;;;;;;21.33;37.30;101163.00;103915;1297;59687;-78
2024/03/15 09:37:53;;;;;;;;;;;;;;;21.34;37.23;101162.02;104171;1297;61365;-78
2024/03/15 09:40:18;;;;;;;;;;;;;;;21.36;37.05;101158.67;103995;1297;72513;-80
2024/03/15 09:42:44;;;;;;;;;;;;;;;21.38;37.08;101163.55;104388;1297;61581;-80
2024/03/15 09:45:16;;;;;;;;;;;;;;;21.39;37.09;101160.63;104617;1297;59457;-80
2024/03/15 09:47:41;;;;;;;;;;;;;;;21.40;37.02;101158.91;104166;1297;61418;-79
2024/03/15 09:50:11;;;;;;;;;;;;;;;21.41;37.01;101163.52;104317;1297;60976;-79
2024/03/15 09:52:37;;;;;;;;;;;;;;;21.39;36.91;101161.13;105336;1297;74566;-80
2024/03/15 09:55:04;;;;;;;;;;;;;;;21.20;36.76;101160.29;105338;1301;59157;-79
2024/03/15 09:57:29;;;;;;;;;;;;;;;21.08;36.92;101157.45;105288;1297;58892;-80
2024/03/15 09:59:55;;;;;;;;;;;;;;;21.07;37.28;101153.39;105230;1297;59275;-78
2024/03/15 10:02:23;;;;;;;;;;;;;;;21.06;37.45;101150.43;105431;1297;59675;-79
2024/03/15 10:04:52;;;;;;;;;;;;;;;21.02;37.59;101150.31;104332;1297;61326;-79
2024/03/15 10:07:19;;;;;;;;;;;;;;;20.89;37.29;101150.13;103932;1298;61141;-81
2024/03/15 10:09:46;;;;;;;;;;;;;;;20.43;37.34;101149.23;104160;1300;72649;-81
2024/03/15 10:12:12;;;;;;;;;;;;;;;20.37;37.59;101145.72;104407;1298;73939;-80
2024/03/15 10:14:38;;;;;;;;;;;;;;;20.30;37.50;101145.60;104549;1298;63391;-78
2024/03/15 10:17:03;;;;;;;;;;;;;;;20.36;37.70;101145.04;104482;1299;59176;-78
2024/03/15 10:19:29;;;;;;;;;;;;;;;20.42;37.62;101148.44;104480;1298;60192;-78
2024/03/15 10:21:57;;;;;;;;;;;;;;;20.47;37.68;101149.74;104576;1297;61363;-80
2024/03/15 10:24:24;;;;;;;;;;;;;;;20.50;37.48;101152.90;104590;1297;61406;-80
2024/03/15 10:26:51;;;;;;;;;;;;;;;20.56;37.45;101150.74;104452;1297;61246;-80
2024/03/15 10:29:16;;;;;;;;;;;;;;;20.61;37.25;101149.72;103703;1297;61434;-78
2024/03/15 10:31:42;;;;;;;;;;;;;;;20.66;37.28;101143.55;104001;1297;61286;-78
2024/03/15 10:34:11;;;;;;;;;;;;;;;20.70;37.24;101144.87;104000;1299;61413;-80
2024/03/15 10:36:36;;;;;;;;;;;;;;;20.72;37.16;101141.74;103835;1298;61401;-78
2024/03/15 10:39:02;;;;;;;;;;;;;;;20.74;36.99;101137.32;103929;1297;59635;-79
2024/03/15 10:41:28;;;;;;;;;;;;;;;20.76;36.94;101138.81;103975;1297;60036;-78
2024/03/15 10:43:55;;;;;;;;;;;;;;;20.78;36.89;101136.88;103957;1297;61415;-80
2024/03/15 10:46:21;;;;;;;;;;;;;;;20.81;36.82;101133.64;103919;1297;61312;-80
2024/03/15 10:48:47;;;;;;;;;;;;;;;20.85;36.91;101133.22;103964;1297;61172;-80
2024/03/15 10:51:12;;;;;;;;;;;;;;;20.89;36.83;101130.58;103781;1297;61402;-78
2024/03/15 10:53:38;;;;;;;;;;;;;;;20.94;36.72;101132.82;103550;1297;60200;-81
2024/03/15 10:56:07;;;;;;;;;;;;;;;20.98;36.76;101132.39;104008;1300;61255;-78
2024/03/15 10:58:32;;;;;;;;;;;;;;;21.00;36.81;101130.11;103843;1297;61292;-79
2024/03/15 11:00:59;;;;;;;;;;;;;;;21.01;36.88;101131.77;104113;1297;61262;-80
2024/03/15 11:03:28;;;;;;;;;;;;;;;21.00;36.60;101129.21;104466;1297;74527;-81
2024/03/15 11:05:53;;;;;;;;;;;;;;;20.78;36.22;101121.98;104083;1295;61295;-79
2024/03/15 11:08:22;;;;;;;;;;;;;;;20.63;36.30;101122.27;104166;1297;60595;-79
2024/03/15 11:11:01;;;;;;;;;;;;;;;20.58;36.40;101123.84;104217;1297;72689;-81
2024/03/15 11:13:31;;;;;;;;;;;;;;;20.49;36.43;101125.64;104463;1296;74118;-78
2024/03/15 11:15:57;;;;;;;;;;;;;;;20.45;36.65;101125.88;105386;1296;59872;-82
2024/03/15 11:18:22;;;;;;;;;;;;;;;20.48;36.59;101125.73;103923;1297;61454;-82
2024/03/15 11:20:54;;;;;;;;;;;;;;;20.51;36.37;101121.04;104000;1297;61372;-81
2024/03/15 11:23:23;;;;;;;;;;;;;;;20.54;36.61;101121.02;104161;1297;74396;-80
2024/03/15 11:25:53;;;;;;;;;;;;;;;20.57;36.50;101117.27;103820;1296;60198;-80
2024/03/15 11:28:19;;;;;;;;;;;;;;;20.58;36.47;101119.66;105154;1297;61926;-80
2024/03/15 11:30:45;;;;;;;;;;;;;;;20.60;36.51;101119.40;103774;1297;61456;-81
2024/03/15 11:33:11;;;;;;;;;;;;;;;20.61;36.37;101117.02;103651;1300;61486;-80
2024/03/15 11:35:40;;;;;;;;;;;;;;;20.62;36.35;101117.86;103921;1303;61282;-82
2024/03/15 11:38:12;;;;;;;;;;;;;;;20.63;36.24;101119.23;104006;1297;61614;-81
2024/03/15 11:40:37;;;;;;;;;;;;;;;20.63;36.22;101115.13;104094;1298;71498;-81
2024/03/15 11:43:03;;;;;;;;;;;;;;;20.63;36.07;101114.73;104169;1298;61461;-80
2024/03/15 11:45:28;;;;;;;;;;;;;;;20.64;36.06;101114.52;103621;1297;62643;-78
2024/03/15 11:47:54;;;;;;;;;;;;;;;20.63;35.89;101110.24;103755;1297;59402;-78
2024/03/15 11:50:20;;;;;;;;;;;;;;;20.64;35.98;101112.38;103630;1300;61282;-80
2024/03/15 11:52:47;;;;;;;;;;;;;;;20.65;35.97;101105.12;103571;1297;72464;-79
2024/03/15 11:55:17;;;;;;;;;;;;;;;20.68;35.91;101106.74;103736;1297;74572;-80
2024/03/15 11:57:43;;;;;;;;;;;;;;;20.69;35.91;101105.97;104074;1297;61159;-82
2024/03/15 12:00:20;;;;;;;;;;;;;;;20.69;35.81;101104.91;103947;1297;61335;-81
2024/03/15 12:02:56;;;;;;;;;;;;;;;20.64;35.66;101104.27;104474;1297;73518;-80
2024/03/15 12:05:22;;;;;;;;;;;;;;;20.43;35.64;101107.95;104594;1297;74424;-79
2024/03/15 12:07:51;;;;;;;;;;;;;;;20.32;35.85;101102.98;104733;1297;59475;-81
2024/03/15 12:10:17;;;;;;;;;;;;;;;20.32;35.88;101107.92;104526;1297;60346;-80
2024/03/15 12:12:46;;;;;;;;;;;;;;;20.29;35.90;101111.34;104544;1297;59772;-78
2024/03/15 12:15:25;;;;;;;;;;;;;;;20.23;35.99;101114.92;105031;1300;75773;-80
2024/03/15 12:17:53;;;;;;;;;;;;;;;20.27;36.15;101113.45;104522;1297;61375;-78
2024/03/15 12:20:19;;;;;;;;;;;;;;;20.31;36.17;101110.17;104669;1296;61394;-78
2024/03/15 12:22:44;;;;;;;;;;;;;;;20.33;36.23;101105.77;104515;1298;63529;-80
2024/03/15 12:25:10;;;;;;;;;;;;;;;20.35;36.05;101107.41;104596;1297;59704;-79
2024/03/15 12:27:35;;;;;;;;;;;;;;;20.38;36.08;101104.89;105052;1298;58831;-80
2024/03/15 12:30:01;;;;;;;;;;;;;;;20.40;36.16;101103.16;104840;1297;59723;-79